sensor_id;sensor_type;location;lat;lon;timestamp;P1;durP1;ratioP1;P2;durP2;ratioP2
58982;SDS011;44771;49.982;8.560;2023-02-01T00:02:43;15.82;;;14.63;;
58982;SDS011;44771;49.982;8.560;2023-02-01T00:08:39;15.63;;;14.35;;
58982;SDS011;44771;49.982;8.560;2023-02-01T00:13:39;16.23;;;15.02;;
58982;SDS011;44771;49.982;8.560;2023-02-01T00:18:42;16.60;;;14.82;;
58982;SDS011;44771;49.982;8.560;2023-02-01T00:23:45;15.43;;;14.27;;
58982;SDS011;44771;49.982;8.560;2023-02-01T00:28:48;16.65;;;15.35;;
58982;SDS011;44771;49.982;8.560;2023-02-01T00:33:50;15.73;;;14.38;;
58982;SDS011;44771;49.982;8.560;2023-02-01T00:38:52;16.12;;;14.75;;
58982;SDS011;44771;49.982;8.560;2023-02-01T00:43:55;16.52;;;14.77;;
58982;SDS011;44771;49.982;8.560;2023-02-01T00:48:57;18.45;;;15.52;;
58982;SDS011;44771;49.982;8.560;2023-02-01T00:53:58;17.83;;;15.93;;
58982;SDS011;44771;49.982;8.560;2023-02-01T00:59:01;17.23;;;15.90;;
58982;SDS011;44771;49.982;8.560;2023-02-01T01:04:03;17.05;;;15.57;;
58982;SDS011;44771;49.982;8.560;2023-02-01T01:09:06;18.48;;;16.23;;
58982;SDS011;44771;49.982;8.560;2023-02-01T01:14:10;17.73;;;15.90;;
58982;SDS011;44771;49.982;8.560;2023-02-01T01:19:12;16.98;;;15.20;;
58982;SDS011;44771;49.982;8.560;2023-02-01T01:24:14;17.10;;;15.52;;
58982;SDS011;44771;49.982;8.560;2023-02-01T01:29:17;17.25;;;15.52;;
58982;SDS011;44771;49.982;8.560;2023-02-01T01:34:19;17.58;;;16.12;;
58982;SDS011;44771;49.982;8.560;2023-02-01T01:39:20;19.25;;;17.30;;
58982;SDS011;44771;49.982;8.560;2023-02-01T01:50:02;19.50;;;17.45;;
58982;SDS011;44771;49.982;8.560;2023-02-01T01:55:05;18.30;;;16.60;;
58982;SDS011;44771;49.982;8.560;2023-02-01T02:00:10;21.25;;;16.85;;
58982;SDS011;44771;49.982;8.560;2023-02-01T02:05:14;21.20;;;16.80;;
58982;SDS011;44771;49.982;8.560;2023-02-01T02:10:18;19.27;;;17.20;;
58982;SDS011;44771;49.982;8.560;2023-02-01T02:15:21;22.60;;;17.87;;
58982;SDS011;44771;49.982;8.560;2023-02-01T02:26:13;19.52;;;17.60;;
58982;SDS011;44771;49.982;8.560;2023-02-01T02:31:40;19.52;;;17.52;;
58982;SDS011;44771;49.982;8.560;2023-02-01T02:42:34;27.48;;;16.33;;
58982;SDS011;44771;49.982;8.560;2023-02-01T02:48:27;22.90;;;18.50;;
58982;SDS011;44771;49.982;8.560;2023-02-01T02:54:11;21.95;;;16.27;;
58982;SDS011;44771;49.982;8.560;2023-02-01T02:59:19;19.15;;;15.57;;
58982;SDS011;44771;49.982;8.560;2023-02-01T03:04:28;15.95;;;14.27;;
58982;SDS011;44771;49.982;8.560;2023-02-01T03:20:41;20.10;;;15.48;;
58982;SDS011;44771;49.982;8.560;2023-02-01T03:25:47;17.80;;;15.93;;
58982;SDS011;44771;49.982;8.560;2023-02-01T03:30:52;24.42;;;18.10;;
58982;SDS011;44771;49.982;8.560;2023-02-01T03:35:57;19.33;;;17.27;;
58982;SDS011;44771;49.982;8.560;2023-02-01T03:41:06;19.83;;;17.45;;
58982;SDS011;44771;49.982;8.560;2023-02-01T03:46:15;20.55;;;17.83;;
58982;SDS011;44771;49.982;8.560;2023-02-01T03:51:22;20.08;;;17.50;;
58982;SDS011;44771;49.982;8.560;2023-02-01T03:56:25;20.10;;;17.67;;
58982;SDS011;44771;49.982;8.560;2023-02-01T04:01:30;27.33;;;17.33;;
58982;SDS011;44771;49.982;8.560;2023-02-01T04:06:32;21.73;;;17.42;;
58982;SDS011;44771;49.982;8.560;2023-02-01T04:11:34;23.27;;;18.33;;
58982;SDS011;44771;49.982;8.560;2023-02-01T04:16:37;20.85;;;17.30;;
58982;SDS011;44771;49.982;8.560;2023-02-01T04:21:39;28.52;;;19.00;;
58982;SDS011;44771;49.982;8.560;2023-02-01T04:26:41;21.98;;;17.95;;
58982;SDS011;44771;49.982;8.560;2023-02-01T04:31:44;21.70;;;17.92;;
58982;SDS011;44771;49.982;8.560;2023-02-01T04:36:46;22.08;;;16.67;;
58982;SDS011;44771;49.982;8.560;2023-02-01T04:41:47;19.60;;;16.15;;
58982;SDS011;44771;49.982;8.560;2023-02-01T04:46:51;28.77;;;17.40;;
58982;SDS011;44771;49.982;8.560;2023-02-01T04:51:52;23.15;;;16.67;;
58982;SDS011;44771;49.982;8.560;2023-02-01T04:56:54;18.08;;;16.23;;
58982;SDS011;44771;49.982;8.560;2023-02-01T05:01:58;16.90;;;15.35;;
58982;SDS011;44771;49.982;8.560;2023-02-01T05:06:59;15.88;;;14.25;;
58982;SDS011;44771;49.982;8.560;2023-02-01T05:12:01;18.45;;;14.35;;
58982;SDS011;44771;49.982;8.560;2023-02-01T05:17:04;15.20;;;13.65;;
58982;SDS011;44771;49.982;8.560;2023-02-01T05:22:06;14.27;;;12.75;;
58982;SDS011;44771;49.982;8.560;2023-02-01T05:27:08;13.82;;;12.40;;
58982;SDS011;44771;49.982;8.560;2023-02-01T05:32:11;14.45;;;13.15;;
58982;SDS011;44771;49.982;8.560;2023-02-01T05:37:23;14.57;;;13.25;;
58982;SDS011;44771;49.982;8.560;2023-02-01T05:42:24;14.55;;;13.35;;
58982;SDS011;44771;49.982;8.560;2023-02-01T05:47:28;19.92;;;12.05;;
58982;SDS011;44771;49.982;8.560;2023-02-01T05:52:29;17.58;;;12.95;;
58982;SDS011;44771;49.982;8.560;2023-02-01T05:57:31;14.52;;;13.13;;
58982;SDS011;44771;49.982;8.560;2023-02-01T06:02:34;15.48;;;12.73;;
58982;SDS011;44771;49.982;8.560;2023-02-01T06:07:36;17.30;;;13.32;;
58982;SDS011;44771;49.982;8.560;2023-02-01T06:12:38;15.52;;;13.77;;
58982;SDS011;44771;49.982;8.560;2023-02-01T06:17:41;14.18;;;12.82;;
58982;SDS011;44771;49.982;8.560;2023-02-01T06:22:44;14.63;;;13.33;;
58982;SDS011;44771;49.982;8.560;2023-02-01T06:27:45;14.73;;;13.45;;
58982;SDS011;44771;49.982;8.560;2023-02-01T06:32:51;14.20;;;12.95;;
58982;SDS011;44771;49.982;8.560;2023-02-01T06:37:52;15.35;;;14.20;;
58982;SDS011;44771;49.982;8.560;2023-02-01T06:42:54;14.55;;;13.25;;
58982;SDS011;44771;49.982;8.560;2023-02-01T06:47:57;18.52;;;12.77;;
58982;SDS011;44771;49.982;8.560;2023-02-01T06:52:59;13.43;;;12.32;;
58982;SDS011;44771;49.982;8.560;2023-02-01T06:58:01;14.57;;;13.32;;
58982;SDS011;44771;49.982;8.560;2023-02-01T07:03:04;14.32;;;12.98;;
58982;SDS011;44771;49.982;8.560;2023-02-01T07:08:06;16.92;;;13.88;;
58982;SDS011;44771;49.982;8.560;2023-02-01T07:13:08;15.00;;;12.88;;
58982;SDS011;44771;49.982;8.560;2023-02-01T07:18:11;19.58;;;14.18;;
58982;SDS011;44771;49.982;8.560;2023-02-01T07:23:13;14.73;;;11.98;;
58982;SDS011;44771;49.982;8.560;2023-02-01T07:28:14;14.20;;;12.82;;
58982;SDS011;44771;49.982;8.560;2023-02-01T07:33:19;15.05;;;13.73;;
58982;SDS011;44771;49.982;8.560;2023-02-01T07:43:23;17.48;;;14.15;;
58982;SDS011;44771;49.982;8.560;2023-02-01T07:48:26;14.77;;;13.35;;
58982;SDS011;44771;49.982;8.560;2023-02-01T07:53:28;17.58;;;14.00;;
58982;SDS011;44771;49.982;8.560;2023-02-01T07:58:31;20.42;;;15.23;;
58982;SDS011;44771;49.982;8.560;2023-02-01T08:03:34;16.10;;;14.25;;
58982;SDS011;44771;49.982;8.560;2023-02-01T08:08:36;17.70;;;15.18;;
58982;SDS011;44771;49.982;8.560;2023-02-01T08:13:38;18.58;;;13.38;;
58982;SDS011;44771;49.982;8.560;2023-02-01T08:18:41;16.23;;;13.80;;
58982;SDS011;44771;49.982;8.560;2023-02-01T08:23:43;18.98;;;15.82;;
58982;SDS011;44771;49.982;8.560;2023-02-01T08:28:46;20.62;;;14.00;;
58982;SDS011;44771;49.982;8.560;2023-02-01T08:33:52;16.25;;;14.25;;
58982;SDS011;44771;49.982;8.560;2023-02-01T08:38:54;18.30;;;14.52;;
58982;SDS011;44771;49.982;8.560;2023-02-01T08:43:57;19.33;;;13.75;;
58982;SDS011;44771;49.982;8.560;2023-02-01T08:49:00;19.70;;;12.98;;
58982;SDS011;44771;49.982;8.560;2023-02-01T08:54:02;24.80;;;14.98;;
58982;SDS011;44771;49.982;8.560;2023-02-01T08:59:04;20.65;;;12.80;;
58982;SDS011;44771;49.982;8.560;2023-02-01T09:04:07;18.83;;;13.05;;
58982;SDS011;44771;49.982;8.560;2023-02-01T09:09:08;21.15;;;12.98;;
58982;SDS011;44771;49.982;8.560;2023-02-01T09:14:10;15.77;;;13.93;;
58982;SDS011;44771;49.982;8.560;2023-02-01T09:19:13;22.83;;;14.65;;
58982;SDS011;44771;49.982;8.560;2023-02-01T09:24:27;22.30;;;13.75;;
58982;SDS011;44771;49.982;8.560;2023-02-01T09:29:28;19.62;;;14.48;;
58982;SDS011;44771;49.982;8.560;2023-02-01T09:34:32;21.83;;;13.25;;
58982;SDS011;44771;49.982;8.560;2023-02-01T09:39:34;18.87;;;13.48;;
58982;SDS011;44771;49.982;8.560;2023-02-01T09:44:45;19.73;;;14.68;;
58982;SDS011;44771;49.982;8.560;2023-02-01T09:49:58;15.48;;;13.05;;
58982;SDS011;44771;49.982;8.560;2023-02-01T09:55:03;20.00;;;13.35;;
58982;SDS011;44771;49.982;8.560;2023-02-01T10:00:12;21.42;;;14.00;;
58982;SDS011;44771;49.982;8.560;2023-02-01T10:05:21;15.70;;;12.85;;
58982;SDS011;44771;49.982;8.560;2023-02-01T10:10:36;20.12;;;14.57;;
58982;SDS011;44771;49.982;8.560;2023-02-01T10:15:46;17.80;;;12.73;;
58982;SDS011;44771;49.982;8.560;2023-02-01T10:21:00;18.55;;;14.43;;
58982;SDS011;44771;49.982;8.560;2023-02-01T10:26:12;23.90;;;14.13;;
58982;SDS011;44771;49.982;8.560;2023-02-01T10:31:19;15.10;;;12.60;;
58982;SDS011;44771;49.982;8.560;2023-02-01T10:36:27;19.92;;;12.93;;
58982;SDS011;44771;49.982;8.560;2023-02-01T10:41:32;16.48;;;13.60;;
58982;SDS011;44771;49.982;8.560;2023-02-01T10:46:35;23.38;;;13.23;;
58982;SDS011;44771;49.982;8.560;2023-02-01T10:51:42;16.02;;;13.93;;
58982;SDS011;44771;49.982;8.560;2023-02-01T10:56:46;17.17;;;12.95;;
58982;SDS011;44771;49.982;8.560;2023-02-01T11:01:49;15.30;;;13.82;;
58982;SDS011;44771;49.982;8.560;2023-02-01T11:07:08;14.45;;;12.98;;
58982;SDS011;44771;49.982;8.560;2023-02-01T11:12:22;18.05;;;12.88;;
58982;SDS011;44771;49.982;8.560;2023-02-01T11:17:28;19.30;;;13.15;;
58982;SDS011;44771;49.982;8.560;2023-02-01T11:22:35;22.27;;;13.25;;
58982;SDS011;44771;49.982;8.560;2023-02-01T11:27:37;22.10;;;14.30;;
58982;SDS011;44771;49.982;8.560;2023-02-01T11:32:54;21.98;;;13.70;;
58982;SDS011;44771;49.982;8.560;2023-02-01T11:37:58;15.73;;;14.10;;
58982;SDS011;44771;49.982;8.560;2023-02-01T11:43:07;18.17;;;13.50;;
58982;SDS011;44771;49.982;8.560;2023-02-01T11:48:15;19.52;;;13.73;;
58982;SDS011;44771;49.982;8.560;2023-02-01T11:53:32;17.42;;;14.48;;
58982;SDS011;44771;49.982;8.560;2023-02-01T11:58:49;16.97;;;13.70;;
58982;SDS011;44771;49.982;8.560;2023-02-01T12:09:48;24.48;;;12.85;;
58982;SDS011;44771;49.982;8.560;2023-02-01T12:15:12;17.83;;;13.48;;
58982;SDS011;44771;49.982;8.560;2023-02-01T12:20:59;19.98;;;13.45;;
58982;SDS011;44771;49.982;8.560;2023-02-01T12:26:18;18.73;;;13.43;;
58982;SDS011;44771;49.982;8.560;2023-02-01T12:37:18;15.77;;;14.13;;
58982;SDS011;44771;49.982;8.560;2023-02-01T12:42:31;15.57;;;12.98;;
58982;SDS011;44771;49.982;8.560;2023-02-01T12:47:39;22.17;;;14.10;;
58982;SDS011;44771;49.982;8.560;2023-02-01T12:52:44;25.30;;;13.90;;
58982;SDS011;44771;49.982;8.560;2023-02-01T12:57:50;20.10;;;14.98;;
58982;SDS011;44771;49.982;8.560;2023-02-01T13:02:57;19.00;;;13.95;;
58982;SDS011;44771;49.982;8.560;2023-02-01T13:08:04;16.08;;;13.77;;
58982;SDS011;44771;49.982;8.560;2023-02-01T13:18:16;19.30;;;13.70;;
58982;SDS011;44771;49.982;8.560;2023-02-01T13:23:23;21.48;;;13.45;;
58982;SDS011;44771;49.982;8.560;2023-02-01T13:28:29;23.00;;;13.80;;
58982;SDS011;44771;49.982;8.560;2023-02-01T13:33:52;25.58;;;14.35;;
58982;SDS011;44771;49.982;8.560;2023-02-01T13:39:27;14.40;;;12.73;;
58982;SDS011;44771;49.982;8.560;2023-02-01T13:44:44;17.83;;;12.82;;
58982;SDS011;44771;49.982;8.560;2023-02-01T13:49:48;25.10;;;14.07;;
58982;SDS011;44771;49.982;8.560;2023-02-01T13:54:50;19.62;;;12.70;;
58982;SDS011;44771;49.982;8.560;2023-02-01T14:00:20;22.37;;;12.90;;
58982;SDS011;44771;49.982;8.560;2023-02-01T14:10:57;20.62;;;14.13;;
58982;SDS011;44771;49.982;8.560;2023-02-01T14:21:18;16.48;;;13.18;;
58982;SDS011;44771;49.982;8.560;2023-02-01T14:26:24;20.92;;;13.27;;
58982;SDS011;44771;49.982;8.560;2023-02-01T14:36:54;14.60;;;12.70;;
58982;SDS011;44771;49.982;8.560;2023-02-01T14:42:00;17.30;;;13.60;;
58982;SDS011;44771;49.982;8.560;2023-02-01T14:47:11;14.20;;;12.90;;
58982;SDS011;44771;49.982;8.560;2023-02-01T14:52:32;14.02;;;12.55;;
58982;SDS011;44771;49.982;8.560;2023-02-01T14:57:37;15.45;;;13.50;;
58982;SDS011;44771;49.982;8.560;2023-02-01T15:02:43;22.25;;;14.05;;
58982;SDS011;44771;49.982;8.560;2023-02-01T15:07:46;16.55;;;14.90;;
58982;SDS011;44771;49.982;8.560;2023-02-01T15:12:47;14.52;;;12.55;;
58982;SDS011;44771;49.982;8.560;2023-02-01T15:17:51;15.35;;;13.68;;
58982;SDS011;44771;49.982;8.560;2023-02-01T15:22:55;16.35;;;13.07;;
58982;SDS011;44771;49.982;8.560;2023-02-01T15:27:59;20.93;;;14.30;;
58982;SDS011;44771;49.982;8.560;2023-02-01T15:33:06;18.20;;;14.00;;
58982;SDS011;44771;49.982;8.560;2023-02-01T15:38:18;21.92;;;12.85;;
58982;SDS011;44771;49.982;8.560;2023-02-01T15:43:30;18.98;;;14.10;;
58982;SDS011;44771;49.982;8.560;2023-02-01T15:48:36;15.30;;;13.73;;
58982;SDS011;44771;49.982;8.560;2023-02-01T15:53:46;22.42;;;13.80;;
58982;SDS011;44771;49.982;8.560;2023-02-01T15:58:53;16.52;;;12.88;;
58982;SDS011;44771;49.982;8.560;2023-02-01T16:04:10;14.57;;;13.20;;
58982;SDS011;44771;49.982;8.560;2023-02-01T16:09:17;18.02;;;14.07;;
58982;SDS011;44771;49.982;8.560;2023-02-01T16:14:20;14.90;;;13.30;;
58982;SDS011;44771;49.982;8.560;2023-02-01T16:19:23;20.10;;;13.57;;
58982;SDS011;44771;49.982;8.560;2023-02-01T16:24:25;15.80;;;14.13;;
58982;SDS011;44771;49.982;8.560;2023-02-01T16:29:27;21.30;;;14.80;;
58982;SDS011;44771;49.982;8.560;2023-02-01T16:34:30;18.58;;;12.88;;
58982;SDS011;44771;49.982;8.560;2023-02-01T16:39:32;15.50;;;14.02;;
58982;SDS011;44771;49.982;8.560;2023-02-01T16:44:34;23.02;;;14.35;;
58982;SDS011;44771;49.982;8.560;2023-02-01T16:49:37;28.85;;;13.98;;
58982;SDS011;44771;49.982;8.560;2023-02-01T16:54:41;17.25;;;13.23;;
58982;SDS011;44771;49.982;8.560;2023-02-01T16:59:43;21.10;;;14.80;;
58982;SDS011;44771;49.982;8.560;2023-02-01T17:04:46;15.00;;;12.75;;
58982;SDS011;44771;49.982;8.560;2023-02-01T17:09:48;16.80;;;14.90;;
58982;SDS011;44771;49.982;8.560;2023-02-01T17:14:50;23.35;;;15.00;;
58982;SDS011;44771;49.982;8.560;2023-02-01T17:19:54;16.52;;;14.10;;
58982;SDS011;44771;49.982;8.560;2023-02-01T17:24:55;16.27;;;13.80;;
58982;SDS011;44771;49.982;8.560;2023-02-01T17:29:57;15.85;;;13.77;;
58982;SDS011;44771;49.982;8.560;2023-02-01T17:35:00;16.83;;;14.60;;
58982;SDS011;44771;49.982;8.560;2023-02-01T17:40:02;22.13;;;14.77;;
58982;SDS011;44771;49.982;8.560;2023-02-01T17:45:12;17.98;;;14.50;;
58982;SDS011;44771;49.982;8.560;2023-02-01T17:50:20;19.42;;;14.23;;
58982;SDS011;44771;49.982;8.560;2023-02-01T17:55:23;21.98;;;15.52;;
58982;SDS011;44771;49.982;8.560;2023-02-01T18:00:26;20.58;;;13.70;;
58982;SDS011;44771;49.982;8.560;2023-02-01T18:05:31;16.02;;;14.32;;
58982;SDS011;44771;49.982;8.560;2023-02-01T18:10:39;16.00;;;14.45;;
58982;SDS011;44771;49.982;8.560;2023-02-01T18:15:40;20.75;;;14.68;;
58982;SDS011;44771;49.982;8.560;2023-02-01T18:20:44;15.32;;;13.85;;
58982;SDS011;44771;49.982;8.560;2023-02-01T18:25:46;19.08;;;14.38;;
58982;SDS011;44771;49.982;8.560;2023-02-01T18:30:49;16.52;;;14.43;;
58982;SDS011;44771;49.982;8.560;2023-02-01T18:35:52;25.90;;;14.32;;
58982;SDS011;44771;49.982;8.560;2023-02-01T18:40:54;16.42;;;14.75;;
58982;SDS011;44771;49.982;8.560;2023-02-01T18:45:56;29.10;;;15.77;;
58982;SDS011;44771;49.982;8.560;2023-02-01T18:50:59;17.27;;;13.38;;
58982;SDS011;44771;49.982;8.560;2023-02-01T18:56:01;17.00;;;13.30;;
58982;SDS011;44771;49.982;8.560;2023-02-01T19:01:04;21.27;;;14.13;;
58982;SDS011;44771;49.982;8.560;2023-02-01T19:06:09;15.85;;;14.45;;
58982;SDS011;44771;49.982;8.560;2023-02-01T19:11:10;20.17;;;15.52;;
58982;SDS011;44771;49.982;8.560;2023-02-01T19:16:12;18.12;;;13.80;;
58982;SDS011;44771;49.982;8.560;2023-02-01T19:21:16;15.68;;;14.20;;
58982;SDS011;44771;49.982;8.560;2023-02-01T19:26:17;18.05;;;15.25;;
58982;SDS011;44771;49.982;8.560;2023-02-01T19:31:19;20.95;;;13.62;;
58982;SDS011;44771;49.982;8.560;2023-02-01T19:36:23;24.23;;;13.77;;
58982;SDS011;44771;49.982;8.560;2023-02-01T19:41:24;20.17;;;14.98;;
58982;SDS011;44771;49.982;8.560;2023-02-01T19:46:26;23.55;;;14.30;;
58982;SDS011;44771;49.982;8.560;2023-02-01T19:51:31;20.12;;;13.38;;
58982;SDS011;44771;49.982;8.560;2023-02-01T19:56:33;22.98;;;15.07;;
58982;SDS011;44771;49.982;8.560;2023-02-01T20:01:35;19.73;;;12.75;;
58982;SDS011;44771;49.982;8.560;2023-02-01T20:06:39;14.85;;;13.30;;
58982;SDS011;44771;49.982;8.560;2023-02-01T20:11:42;19.12;;;15.23;;
58982;SDS011;44771;49.982;8.560;2023-02-01T20:16:43;15.02;;;13.50;;
58982;SDS011;44771;49.982;8.560;2023-02-01T20:21:47;18.75;;;14.68;;
58982;SDS011;44771;49.982;8.560;2023-02-01T20:26:49;25.10;;;14.20;;
58982;SDS011;44771;49.982;8.560;2023-02-01T20:31:50;16.12;;;14.70;;
58982;SDS011;44771;49.982;8.560;2023-02-01T20:36:54;15.88;;;14.25;;
58982;SDS011;44771;49.982;8.560;2023-02-01T20:41:55;17.23;;;15.10;;
58982;SDS011;44771;49.982;8.560;2023-02-01T20:46:57;19.20;;;13.80;;
58982;SDS011;44771;49.982;8.560;2023-02-01T20:52:00;21.17;;;14.57;;
58982;SDS011;44771;49.982;8.560;2023-02-01T20:57:02;17.65;;;13.65;;
58982;SDS011;44771;49.982;8.560;2023-02-01T21:02:04;21.37;;;13.98;;
58982;SDS011;44771;49.982;8.560;2023-02-01T21:07:07;19.60;;;15.38;;
58982;SDS011;44771;49.982;8.560;2023-02-01T21:12:09;15.45;;;13.85;;
58982;SDS011;44771;49.982;8.560;2023-02-01T21:17:11;16.20;;;14.70;;
58982;SDS011;44771;49.982;8.560;2023-02-01T21:22:14;20.75;;;13.13;;
58982;SDS011;44771;49.982;8.560;2023-02-01T21:27:16;22.67;;;14.52;;
58982;SDS011;44771;49.982;8.560;2023-02-01T21:32:18;16.00;;;13.88;;
58982;SDS011;44771;49.982;8.560;2023-02-01T21:37:21;22.08;;;15.45;;
58982;SDS011;44771;49.982;8.560;2023-02-01T21:42:23;18.40;;;13.85;;
58982;SDS011;44771;49.982;8.560;2023-02-01T21:47:25;16.50;;;14.25;;
58982;SDS011;44771;49.982;8.560;2023-02-01T21:52:29;18.20;;;15.05;;
58982;SDS011;44771;49.982;8.560;2023-02-01T21:57:30;21.10;;;14.60;;
58982;SDS011;44771;49.982;8.560;2023-02-01T22:02:33;18.62;;;13.50;;
58982;SDS011;44771;49.982;8.560;2023-02-01T22:07:36;16.23;;;12.43;;
58982;SDS011;44771;49.982;8.560;2023-02-01T22:12:38;23.67;;;14.40;;
58982;SDS011;44771;49.982;8.560;2023-02-01T22:17:40;20.37;;;13.50;;
58982;SDS011;44771;49.982;8.560;2023-02-01T22:22:45;22.13;;;14.40;;
58982;SDS011;44771;49.982;8.560;2023-02-01T22:27:48;15.45;;;13.95;;
58982;SDS011;44771;49.982;8.560;2023-02-01T22:33:09;13.75;;;12.57;;
58982;SDS011;44771;49.982;8.560;2023-02-01T22:38:12;16.33;;;13.52;;
58982;SDS011;44771;49.982;8.560;2023-02-01T22:43:14;14.25;;;12.85;;
58982;SDS011;44771;49.982;8.560;2023-02-01T22:48:16;24.60;;;14.95;;
58982;SDS011;44771;49.982;8.560;2023-02-01T22:53:19;15.75;;;14.13;;
58982;SDS011;44771;49.982;8.560;2023-02-01T22:58:21;19.70;;;13.55;;
58982;SDS011;44771;49.982;8.560;2023-02-01T23:03:23;14.73;;;13.07;;
58982;SDS011;44771;49.982;8.560;2023-02-01T23:08:26;15.00;;;13.80;;
58982;SDS011;44771;49.982;8.560;2023-02-01T23:13:28;14.85;;;13.80;;
58982;SDS011;44771;49.982;8.560;2023-02-01T23:18:30;17.17;;;12.88;;
58982;SDS011;44771;49.982;8.560;2023-02-01T23:23:33;14.98;;;13.68;;
58982;SDS011;44771;49.982;8.560;2023-02-01T23:28:35;16.17;;;14.13;;
58982;SDS011;44771;49.982;8.560;2023-02-01T23:33:37;14.18;;;12.45;;
58982;SDS011;44771;49.982;8.560;2023-02-01T23:38:40;15.25;;;14.07;;
58982;SDS011;44771;49.982;8.560;2023-02-01T23:43:43;16.25;;;13.75;;
58982;SDS011;44771;49.982;8.560;2023-02-01T23:48:45;14.77;;;13.20;;
58982;SDS011;44771;49.982;8.560;2023-02-01T23:53:49;16.15;;;13.57;;
58982;SDS011;44771;49.982;8.560;2023-02-01T23:58:52;23.20;;;13.73;;
